To NAV CANADA Home Page Login to a new session Search on AWWS site Feedback and Comments Disclaimer Vers la page française équivalente Tips FAQ What's new on the site To the Forecasts and Observations / NOTAM section To "File a Flight Plan" website Publications and other links Update of the User's profile FIC Telephone Numbers My Weather Data Folder Route Weather Data Regional Weather Data Local Weather Data To the Forecasts and Observations / NOTAM section
Request Generated 03/28/2015 at 22:11:14 UTC . Weather information available at that time is displayed.

METAR/TAF

NAIN/NL    

METAR CYDP 282200Z 27011KT 15SM FEW220 M09/M19 A2954 RMK CI1 SLP004=
METAR CYDP 282100Z 27015G20KT 15SM SKC M09/M19 A2956 RMK SLP009=
METAR CYDP 282000Z 27013G21KT 15SM SKC M09/M19 A2957 RMK TR CI
SLP015=

TAF CYDP 281938Z 2820/2823 26010G20KT P6SM FEW200
RMK NXT FCST WILL BE ISSUED AT 290945Z=
Your time UTC time
Weather data provided by Environment Canada and NAV CANADA